メインページ
METAR-TAF:

METAR-TAF

空港 :

Terrace, ブリティッシュコロンビア州, カナダ

緯度: 54-28N, 経度: 128-35W, 海抜: 217m

現時点の気象観測

当レポートは38分前の04:00(UTC)に作成
の風 13kt
気温 2°C
湿度 87%
気圧 1030 hPa
視程: 24.1km
高度15000ftの雲は散在している

METAR: CYXT 170400Z 36013KT 15SM SCT150 02/00 A3041 RMK AC4 SLP310

時間: 20:38 (04:38 UTC)

予報

当レポートは3時間59分前の00:39(UTC)に作成
予報は17日の 01時(UTC)から 17日の 13時(UTC)まで有効
の風 12kt
視程: 10km
高度2000ftの雲はほとんどない
高度12000ftの雲はほとんどない
高度20000ftの雲は散在している
17日の 01時(UTC)から 17日の 13時(UTC)まで一時的に
視程: 8.0km
高度1200ftの千切れ雲あり
小雪
17日の 07時(UTC)から 17日の 09時(UTC)まで徐々に
の風 8kt

TAF: CYXT 170039Z 1701/1713 36012KT P6SM FEW020 FEW120 SCT200 TEMPO 1701/1713 5SM -SN BKN012 BECMG 1707/1709 01008KT RMK NXT FCST BY 170700Z

4,000以上の空港の気象観測と天気予報(METAR報とTAF報)

利用可能な観測所は地図上に黄色い丸と赤い丸で示す。

丸の上にカーソルを重ねると観測所名を参照できる。

次にクリックすると気象観測と天気予報を参照できる。

マップの切り替え:黒色「×」印の緑ボタンをクリックして拡大、「-」印の緑ボタンをクリックして縮小、緑色の三角印をクリックして隣りの地図に切り替え


METAR-TAF: